sensor_id;sensor_type;location;lat;lon;timestamp;P1;durP1;ratioP1;P2;durP2;ratioP2
19024;SDS011;9645;51.448;6.260;2023-02-28T00:00:11;11.13;;;5.35;;
19024;SDS011;9645;51.448;6.260;2023-02-28T00:02:39;11.10;;;5.53;;
19024;SDS011;9645;51.448;6.260;2023-02-28T00:05:08;10.98;;;5.60;;
19024;SDS011;9645;51.448;6.260;2023-02-28T00:07:37;12.93;;;4.80;;
19024;SDS011;9645;51.448;6.260;2023-02-28T00:10:05;11.73;;;4.95;;
19024;SDS011;9645;51.448;6.260;2023-02-28T00:12:33;9.02;;;4.75;;
19024;SDS011;9645;51.448;6.260;2023-02-28T00:15:02;12.77;;;4.75;;
19024;SDS011;9645;51.448;6.260;2023-02-28T00:17:32;13.27;;;5.35;;
19024;SDS011;9645;51.448;6.260;2023-02-28T00:19:59;10.32;;;5.40;;
19024;SDS011;9645;51.448;6.260;2023-02-28T00:22:36;10.60;;;4.38;;
19024;SDS011;9645;51.448;6.260;2023-02-28T00:25:04;26.75;;;5.80;;
19024;SDS011;9645;51.448;6.260;2023-02-28T00:27:33;13.82;;;5.43;;
19024;SDS011;9645;51.448;6.260;2023-02-28T00:30:02;11.60;;;5.43;;
19024;SDS011;9645;51.448;6.260;2023-02-28T00:32:30;19.38;;;5.15;;
19024;SDS011;9645;51.448;6.260;2023-02-28T00:34:57;9.95;;;5.15;;
19024;SDS011;9645;51.448;6.260;2023-02-28T00:37:24;10.30;;;4.90;;
19024;SDS011;9645;51.448;6.260;2023-02-28T00:39:51;15.48;;;5.60;;
19024;SDS011;9645;51.448;6.260;2023-02-28T00:42:18;14.52;;;5.45;;
19024;SDS011;9645;51.448;6.260;2023-02-28T00:44:45;10.10;;;5.07;;
19024;SDS011;9645;51.448;6.260;2023-02-28T00:47:14;13.55;;;5.63;;
19024;SDS011;9645;51.448;6.260;2023-02-28T00:49:41;10.90;;;4.70;;
19024;SDS011;9645;51.448;6.260;2023-02-28T00:52:08;16.83;;;5.85;;
19024;SDS011;9645;51.448;6.260;2023-02-28T00:54:35;14.60;;;4.82;;
19024;SDS011;9645;51.448;6.260;2023-02-28T00:57:02;15.27;;;5.30;;
19024;SDS011;9645;51.448;6.260;2023-02-28T00:59:29;13.02;;;5.53;;
19024;SDS011;9645;51.448;6.260;2023-02-28T01:01:56;13.82;;;5.55;;
19024;SDS011;9645;51.448;6.260;2023-02-28T01:04:25;11.25;;;5.45;;
19024;SDS011;9645;51.448;6.260;2023-02-28T01:06:52;14.07;;;6.18;;
19024;SDS011;9645;51.448;6.260;2023-02-28T01:09:19;17.98;;;6.80;;
19024;SDS011;9645;51.448;6.260;2023-02-28T01:11:46;11.75;;;6.40;;
19024;SDS011;9645;51.448;6.260;2023-02-28T01:14:14;18.42;;;6.40;;
19024;SDS011;9645;51.448;6.260;2023-02-28T01:16:42;13.65;;;5.75;;
19024;SDS011;9645;51.448;6.260;2023-02-28T01:19:10;12.25;;;5.90;;
19024;SDS011;9645;51.448;6.260;2023-02-28T01:21:38;12.98;;;5.65;;
19024;SDS011;9645;51.448;6.260;2023-02-28T01:24:06;11.95;;;4.95;;
19024;SDS011;9645;51.448;6.260;2023-02-28T01:26:34;11.00;;;5.72;;
19024;SDS011;9645;51.448;6.260;2023-02-28T01:29:01;13.70;;;5.25;;
19024;SDS011;9645;51.448;6.260;2023-02-28T01:31:28;14.43;;;5.10;;
19024;SDS011;9645;51.448;6.260;2023-02-28T01:33:55;10.15;;;4.88;;
19024;SDS011;9645;51.448;6.260;2023-02-28T01:36:23;16.13;;;6.28;;
19024;SDS011;9645;51.448;6.260;2023-02-28T01:38:53;9.68;;;4.93;;
19024;SDS011;9645;51.448;6.260;2023-02-28T01:41:20;11.50;;;5.45;;
19024;SDS011;9645;51.448;6.260;2023-02-28T01:43:53;15.60;;;5.00;;
19024;SDS011;9645;51.448;6.260;2023-02-28T01:46:22;13.65;;;5.82;;
19024;SDS011;9645;51.448;6.260;2023-02-28T01:48:51;13.15;;;6.47;;
19024;SDS011;9645;51.448;6.260;2023-02-28T01:51:24;9.77;;;4.95;;
19024;SDS011;9645;51.448;6.260;2023-02-28T01:53:59;12.10;;;5.63;;
19024;SDS011;9645;51.448;6.260;2023-02-28T01:56:29;23.67;;;6.63;;
19024;SDS011;9645;51.448;6.260;2023-02-28T01:58:59;10.88;;;4.55;;
19024;SDS011;9645;51.448;6.260;2023-02-28T02:01:27;11.75;;;5.50;;
19024;SDS011;9645;51.448;6.260;2023-02-28T02:03:55;15.00;;;5.47;;
19024;SDS011;9645;51.448;6.260;2023-02-28T02:06:26;14.00;;;5.85;;
19024;SDS011;9645;51.448;6.260;2023-02-28T02:08:55;9.30;;;5.47;;
19024;SDS011;9645;51.448;6.260;2023-02-28T02:11:24;12.10;;;5.75;;
19024;SDS011;9645;51.448;6.260;2023-02-28T02:14:04;18.38;;;6.43;;
19024;SDS011;9645;51.448;6.260;2023-02-28T02:16:42;11.27;;;5.50;;
19024;SDS011;9645;51.448;6.260;2023-02-28T02:19:27;19.42;;;5.80;;
19024;SDS011;9645;51.448;6.260;2023-02-28T02:22:21;23.10;;;7.15;;
19024;SDS011;9645;51.448;6.260;2023-02-28T02:25:18;14.43;;;5.65;;
19024;SDS011;9645;51.448;6.260;2023-02-28T02:28:02;13.63;;;5.57;;
19024;SDS011;9645;51.448;6.260;2023-02-28T02:30:50;15.48;;;5.93;;
19024;SDS011;9645;51.448;6.260;2023-02-28T02:33:59;16.13;;;5.60;;
19024;SDS011;9645;51.448;6.260;2023-02-28T02:36:40;14.85;;;5.45;;
19024;SDS011;9645;51.448;6.260;2023-02-28T02:39:13;13.90;;;5.28;;
19024;SDS011;9645;51.448;6.260;2023-02-28T02:41:46;13.55;;;5.15;;
19024;SDS011;9645;51.448;6.260;2023-02-28T02:44:18;12.50;;;4.85;;
19024;SDS011;9645;51.448;6.260;2023-02-28T02:46:51;11.00;;;4.43;;
19024;SDS011;9645;51.448;6.260;2023-02-28T02:49:24;9.48;;;4.82;;
19024;SDS011;9645;51.448;6.260;2023-02-28T02:51:54;11.30;;;5.35;;
19024;SDS011;9645;51.448;6.260;2023-02-28T02:54:25;10.80;;;5.10;;
19024;SDS011;9645;51.448;6.260;2023-02-28T02:56:54;8.65;;;4.40;;
19024;SDS011;9645;51.448;6.260;2023-02-28T02:59:24;10.55;;;4.28;;
19024;SDS011;9645;51.448;6.260;2023-02-28T03:01:54;13.02;;;4.80;;
19024;SDS011;9645;51.448;6.260;2023-02-28T03:04:28;10.18;;;4.43;;
19024;SDS011;9645;51.448;6.260;2023-02-28T03:06:59;10.75;;;4.20;;
19024;SDS011;9645;51.448;6.260;2023-02-28T03:09:26;9.25;;;5.13;;
19024;SDS011;9645;51.448;6.260;2023-02-28T03:11:53;12.73;;;4.90;;
19024;SDS011;9645;51.448;6.260;2023-02-28T03:14:27;12.35;;;5.03;;
19024;SDS011;9645;51.448;6.260;2023-02-28T03:17:11;12.00;;;4.75;;
19024;SDS011;9645;51.448;6.260;2023-02-28T03:19:56;16.95;;;5.90;;
19024;SDS011;9645;51.448;6.260;2023-02-28T03:25:27;14.23;;;5.13;;
19024;SDS011;9645;51.448;6.260;2023-02-28T03:28:02;15.57;;;5.30;;
19024;SDS011;9645;51.448;6.260;2023-02-28T03:30:36;11.43;;;4.68;;
19024;SDS011;9645;51.448;6.260;2023-02-28T03:33:08;11.63;;;4.55;;
19024;SDS011;9645;51.448;6.260;2023-02-28T03:35:41;8.63;;;4.75;;
19024;SDS011;9645;51.448;6.260;2023-02-28T03:38:13;7.90;;;4.38;;
19024;SDS011;9645;51.448;6.260;2023-02-28T03:40:45;11.82;;;4.93;;
19024;SDS011;9645;51.448;6.260;2023-02-28T03:43:16;12.32;;;4.95;;
19024;SDS011;9645;51.448;6.260;2023-02-28T03:45:48;9.60;;;4.65;;
19024;SDS011;9645;51.448;6.260;2023-02-28T03:48:19;12.15;;;4.90;;
19024;SDS011;9645;51.448;6.260;2023-02-28T03:50:52;11.30;;;4.97;;
19024;SDS011;9645;51.448;6.260;2023-02-28T03:53:23;18.05;;;5.00;;
19024;SDS011;9645;51.448;6.260;2023-02-28T03:55:56;10.55;;;4.72;;
19024;SDS011;9645;51.448;6.260;2023-02-28T03:58:28;6.90;;;3.92;;
19024;SDS011;9645;51.448;6.260;2023-02-28T04:01:02;8.82;;;4.60;;
19024;SDS011;9645;51.448;6.260;2023-02-28T04:03:34;14.45;;;4.60;;
19024;SDS011;9645;51.448;6.260;2023-02-28T04:06:03;12.57;;;4.90;;
19024;SDS011;9645;51.448;6.260;2023-02-28T04:08:32;16.65;;;5.00;;
19024;SDS011;9645;51.448;6.260;2023-02-28T04:11:00;12.95;;;4.82;;
19024;SDS011;9645;51.448;6.260;2023-02-28T04:13:31;13.45;;;4.45;;
19024;SDS011;9645;51.448;6.260;2023-02-28T04:15:58;10.55;;;5.10;;
19024;SDS011;9645;51.448;6.260;2023-02-28T04:18:24;12.13;;;4.63;;
19024;SDS011;9645;51.448;6.260;2023-02-28T04:20:52;9.65;;;4.30;;
19024;SDS011;9645;51.448;6.260;2023-02-28T04:23:20;11.52;;;4.85;;
19024;SDS011;9645;51.448;6.260;2023-02-28T04:25:47;15.23;;;5.38;;
19024;SDS011;9645;51.448;6.260;2023-02-28T04:28:16;12.60;;;4.88;;
19024;SDS011;9645;51.448;6.260;2023-02-28T04:30:43;8.25;;;4.30;;
19024;SDS011;9645;51.448;6.260;2023-02-28T04:33:10;10.18;;;5.13;;
19024;SDS011;9645;51.448;6.260;2023-02-28T04:35:37;11.05;;;4.28;;
19024;SDS011;9645;51.448;6.260;2023-02-28T04:38:04;9.38;;;4.38;;
19024;SDS011;9645;51.448;6.260;2023-02-28T04:40:33;9.88;;;4.45;;
19024;SDS011;9645;51.448;6.260;2023-02-28T04:43:01;15.00;;;5.50;;
19024;SDS011;9645;51.448;6.260;2023-02-28T04:45:28;14.55;;;4.63;;
19024;SDS011;9645;51.448;6.260;2023-02-28T04:47:57;10.75;;;5.00;;
19024;SDS011;9645;51.448;6.260;2023-02-28T04:50:24;15.82;;;4.55;;
19024;SDS011;9645;51.448;6.260;2023-02-28T04:52:51;10.00;;;4.50;;
19024;SDS011;9645;51.448;6.260;2023-02-28T04:55:19;10.75;;;4.40;;
19024;SDS011;9645;51.448;6.260;2023-02-28T04:57:48;9.98;;;4.53;;
19024;SDS011;9645;51.448;6.260;2023-02-28T05:00:15;9.65;;;4.88;;
19024;SDS011;9645;51.448;6.260;2023-02-28T05:02:42;17.50;;;4.93;;
19024;SDS011;9645;51.448;6.260;2023-02-28T05:05:10;9.90;;;4.90;;
19024;SDS011;9645;51.448;6.260;2023-02-28T05:07:41;8.50;;;4.30;;
19024;SDS011;9645;51.448;6.260;2023-02-28T05:10:09;9.32;;;4.22;;
19024;SDS011;9645;51.448;6.260;2023-02-28T05:12:37;12.23;;;4.57;;
19024;SDS011;9645;51.448;6.260;2023-02-28T05:15:07;15.43;;;5.32;;
19024;SDS011;9645;51.448;6.260;2023-02-28T05:17:38;12.52;;;4.90;;
19024;SDS011;9645;51.448;6.260;2023-02-28T05:20:06;11.65;;;4.47;;
19024;SDS011;9645;51.448;6.260;2023-02-28T05:22:35;11.40;;;4.57;;
19024;SDS011;9645;51.448;6.260;2023-02-28T05:25:03;8.38;;;4.00;;
19024;SDS011;9645;51.448;6.260;2023-02-28T05:27:30;9.27;;;3.92;;
19024;SDS011;9645;51.448;6.260;2023-02-28T05:29:58;14.70;;;4.93;;
19024;SDS011;9645;51.448;6.260;2023-02-28T05:32:29;10.85;;;4.80;;
19024;SDS011;9645;51.448;6.260;2023-02-28T05:34:56;11.98;;;5.00;;
19024;SDS011;9645;51.448;6.260;2023-02-28T05:37:23;16.45;;;5.20;;
19024;SDS011;9645;51.448;6.260;2023-02-28T05:39:50;9.50;;;4.18;;
19024;SDS011;9645;51.448;6.260;2023-02-28T05:42:18;13.73;;;4.82;;
19024;SDS011;9645;51.448;6.260;2023-02-28T05:44:45;14.23;;;4.78;;
19024;SDS011;9645;51.448;6.260;2023-02-28T05:47:12;11.77;;;4.95;;
19024;SDS011;9645;51.448;6.260;2023-02-28T05:49:41;9.32;;;3.95;;
19024;SDS011;9645;51.448;6.260;2023-02-28T05:52:08;11.07;;;4.28;;
19024;SDS011;9645;51.448;6.260;2023-02-28T05:54:36;7.30;;;3.50;;
19024;SDS011;9645;51.448;6.260;2023-02-28T05:57:03;11.63;;;4.20;;
19024;SDS011;9645;51.448;6.260;2023-02-28T05:59:30;10.48;;;4.20;;
19024;SDS011;9645;51.448;6.260;2023-02-28T06:01:57;9.40;;;3.70;;
19024;SDS011;9645;51.448;6.260;2023-02-28T06:04:24;10.18;;;3.83;;
19024;SDS011;9645;51.448;6.260;2023-02-28T06:06:53;9.18;;;3.80;;
19024;SDS011;9645;51.448;6.260;2023-02-28T06:09:22;15.35;;;5.25;;
19024;SDS011;9645;51.448;6.260;2023-02-28T06:11:50;10.25;;;4.32;;
19024;SDS011;9645;51.448;6.260;2023-02-28T06:14:17;13.02;;;4.72;;
19024;SDS011;9645;51.448;6.260;2023-02-28T06:16:46;12.23;;;5.00;;
19024;SDS011;9645;51.448;6.260;2023-02-28T06:19:13;14.65;;;5.82;;
19024;SDS011;9645;51.448;6.260;2023-02-28T06:21:40;21.20;;;6.63;;
19024;SDS011;9645;51.448;6.260;2023-02-28T06:24:09;21.17;;;6.35;;
19024;SDS011;9645;51.448;6.260;2023-02-28T06:26:36;22.88;;;8.15;;
19024;SDS011;9645;51.448;6.260;2023-02-28T06:29:04;40.75;;;11.45;;
19024;SDS011;9645;51.448;6.260;2023-02-28T06:31:31;72.10;;;18.45;;
19024;SDS011;9645;51.448;6.260;2023-02-28T06:33:58;77.25;;;18.55;;
19024;SDS011;9645;51.448;6.260;2023-02-28T06:36:25;66.70;;;15.75;;
19024;SDS011;9645;51.448;6.260;2023-02-28T06:38:52;49.85;;;14.63;;
19024;SDS011;9645;51.448;6.260;2023-02-28T06:41:23;34.83;;;11.00;;
19024;SDS011;9645;51.448;6.260;2023-02-28T06:43:50;28.17;;;7.68;;
19024;SDS011;9645;51.448;6.260;2023-02-28T06:46:19;30.08;;;8.57;;
19024;SDS011;9645;51.448;6.260;2023-02-28T06:48:46;21.35;;;7.35;;
19024;SDS011;9645;51.448;6.260;2023-02-28T06:51:14;19.25;;;6.15;;
19024;SDS011;9645;51.448;6.260;2023-02-28T06:53:42;12.40;;;4.85;;
19024;SDS011;9645;51.448;6.260;2023-02-28T06:56:14;9.38;;;4.80;;
19024;SDS011;9645;51.448;6.260;2023-02-28T06:58:45;15.40;;;4.47;;
19024;SDS011;9645;51.448;6.260;2023-02-28T07:01:13;11.05;;;4.43;;
19024;SDS011;9645;51.448;6.260;2023-02-28T07:03:40;6.97;;;3.72;;
19024;SDS011;9645;51.448;6.260;2023-02-28T07:06:08;11.95;;;4.32;;
19024;SDS011;9645;51.448;6.260;2023-02-28T07:08:35;7.03;;;3.65;;
19024;SDS011;9645;51.448;6.260;2023-02-28T07:11:03;13.32;;;4.82;;
19024;SDS011;9645;51.448;6.260;2023-02-28T07:13:30;8.35;;;4.05;;
19024;SDS011;9645;51.448;6.260;2023-02-28T07:16:00;8.77;;;3.63;;
19024;SDS011;9645;51.448;6.260;2023-02-28T07:18:29;14.18;;;4.07;;
19024;SDS011;9645;51.448;6.260;2023-02-28T07:20:56;19.50;;;4.20;;
19024;SDS011;9645;51.448;6.260;2023-02-28T07:23:23;7.80;;;3.83;;
19024;SDS011;9645;51.448;6.260;2023-02-28T07:25:52;6.70;;;3.92;;
19024;SDS011;9645;51.448;6.260;2023-02-28T07:28:19;8.60;;;3.70;;
19024;SDS011;9645;51.448;6.260;2023-02-28T07:30:46;10.20;;;4.20;;
19024;SDS011;9645;51.448;6.260;2023-02-28T07:33:15;9.15;;;4.35;;
19024;SDS011;9645;51.448;6.260;2023-02-28T07:35:42;18.13;;;4.15;;
19024;SDS011;9645;51.448;6.260;2023-02-28T07:38:09;16.67;;;4.40;;
19024;SDS011;9645;51.448;6.260;2023-02-28T07:40:38;12.40;;;3.55;;
19024;SDS011;9645;51.448;6.260;2023-02-28T07:43:05;8.05;;;3.90;;
19024;SDS011;9645;51.448;6.260;2023-02-28T07:45:32;8.77;;;4.13;;
19024;SDS011;9645;51.448;6.260;2023-02-28T07:48:00;7.30;;;3.47;;
19024;SDS011;9645;51.448;6.260;2023-02-28T07:50:29;9.85;;;3.80;;
19024;SDS011;9645;51.448;6.260;2023-02-28T07:52:57;11.73;;;4.32;;
19024;SDS011;9645;51.448;6.260;2023-02-28T07:55:24;15.43;;;5.15;;
19024;SDS011;9645;51.448;6.260;2023-02-28T07:57:51;12.82;;;4.53;;
19024;SDS011;9645;51.448;6.260;2023-02-28T08:00:19;10.18;;;4.07;;
19024;SDS011;9645;51.448;6.260;2023-02-28T08:02:46;8.10;;;4.20;;
19024;SDS011;9645;51.448;6.260;2023-02-28T08:05:13;8.17;;;4.57;;
19024;SDS011;9645;51.448;6.260;2023-02-28T08:07:42;7.13;;;4.20;;
19024;SDS011;9645;51.448;6.260;2023-02-28T08:10:09;10.93;;;4.97;;
19024;SDS011;9645;51.448;6.260;2023-02-28T08:12:36;10.40;;;4.80;;
19024;SDS011;9645;51.448;6.260;2023-02-28T08:15:03;8.30;;;4.70;;
19024;SDS011;9645;51.448;6.260;2023-02-28T08:17:31;11.83;;;5.53;;
19024;SDS011;9645;51.448;6.260;2023-02-28T08:19:58;8.40;;;4.10;;
19024;SDS011;9645;51.448;6.260;2023-02-28T08:22:25;8.40;;;4.80;;
19024;SDS011;9645;51.448;6.260;2023-02-28T08:24:54;8.27;;;4.70;;
19024;SDS011;9645;51.448;6.260;2023-02-28T08:27:21;6.83;;;4.00;;
19024;SDS011;9645;51.448;6.260;2023-02-28T08:29:48;6.87;;;4.50;;
19024;SDS011;9645;51.448;6.260;2023-02-28T08:32:15;5.80;;;4.10;;
19024;SDS011;9645;51.448;6.260;2023-02-28T08:34:42;4.13;;;3.73;;
19024;SDS011;9645;51.448;6.260;2023-02-28T08:37:09;18.70;;;4.00;;
19024;SDS011;9645;51.448;6.260;2023-02-28T08:39:37;7.53;;;4.00;;
19024;SDS011;9645;51.448;6.260;2023-02-28T08:42:05;5.77;;;4.07;;
19024;SDS011;9645;51.448;6.260;2023-02-28T08:44:32;10.73;;;4.30;;
19024;SDS011;9645;51.448;6.260;2023-02-28T08:47:00;8.50;;;4.20;;
19024;SDS011;9645;51.448;6.260;2023-02-28T08:49:27;8.50;;;4.10;;
19024;SDS011;9645;51.448;6.260;2023-02-28T08:51:54;7.13;;;4.40;;
19024;SDS011;9645;51.448;6.260;2023-02-28T08:54:22;6.40;;;4.67;;
19024;SDS011;9645;51.448;6.260;2023-02-28T08:56:49;6.50;;;4.13;;
19024;SDS011;9645;51.448;6.260;2023-02-28T08:59:18;6.27;;;4.53;;
19024;SDS011;9645;51.448;6.260;2023-02-28T09:01:45;7.87;;;4.07;;
19024;SDS011;9645;51.448;6.260;2023-02-28T09:04:12;5.63;;;3.73;;
19024;SDS011;9645;51.448;6.260;2023-02-28T09:06:38;7.00;;;4.33;;
19024;SDS011;9645;51.448;6.260;2023-02-28T09:09:06;5.53;;;3.90;;
19024;SDS011;9645;51.448;6.260;2023-02-28T09:11:34;5.20;;;3.93;;
19024;SDS011;9645;51.448;6.260;2023-02-28T09:14:01;5.30;;;3.43;;
19024;SDS011;9645;51.448;6.260;2023-02-28T09:16:31;5.90;;;3.57;;
19024;SDS011;9645;51.448;6.260;2023-02-28T09:18:58;8.27;;;3.53;;
19024;SDS011;9645;51.448;6.260;2023-02-28T09:21:25;9.20;;;3.87;;
19024;SDS011;9645;51.448;6.260;2023-02-28T09:23:52;6.80;;;3.80;;
19024;SDS011;9645;51.448;6.260;2023-02-28T09:26:21;4.10;;;3.50;;
19024;SDS011;9645;51.448;6.260;2023-02-28T09:28:50;7.20;;;3.67;;
19024;SDS011;9645;51.448;6.260;2023-02-28T09:31:19;3.53;;;3.23;;
19024;SDS011;9645;51.448;6.260;2023-02-28T09:33:51;12.60;;;3.60;;
19024;SDS011;9645;51.448;6.260;2023-02-28T09:36:19;5.83;;;3.60;;
19024;SDS011;9645;51.448;6.260;2023-02-28T09:38:48;5.00;;;4.10;;
19024;SDS011;9645;51.448;6.260;2023-02-28T09:41:17;8.63;;;4.07;;
19024;SDS011;9645;51.448;6.260;2023-02-28T09:43:48;5.00;;;3.30;;
19024;SDS011;9645;51.448;6.260;2023-02-28T09:46:21;5.97;;;3.33;;
19024;SDS011;9645;51.448;6.260;2023-02-28T09:49:00;5.73;;;3.57;;
19024;SDS011;9645;51.448;6.260;2023-02-28T09:51:33;8.57;;;4.33;;
19024;SDS011;9645;51.448;6.260;2023-02-28T09:54:09;3.27;;;2.80;;
19024;SDS011;9645;51.448;6.260;2023-02-28T09:56:37;4.57;;;3.27;;
19024;SDS011;9645;51.448;6.260;2023-02-28T09:59:10;3.87;;;3.40;;
19024;SDS011;9645;51.448;6.260;2023-02-28T10:01:43;3.77;;;3.10;;
19024;SDS011;9645;51.448;6.260;2023-02-28T10:04:16;2.57;;;2.37;;
19024;SDS011;9645;51.448;6.260;2023-02-28T10:06:46;2.37;;;2.17;;
19024;SDS011;9645;51.448;6.260;2023-02-28T10:09:15;4.37;;;2.60;;
19024;SDS011;9645;51.448;6.260;2023-02-28T10:11:45;3.30;;;2.10;;
19024;SDS011;9645;51.448;6.260;2023-02-28T10:14:14;3.77;;;2.07;;
19024;SDS011;9645;51.448;6.260;2023-02-28T10:16:43;2.40;;;2.20;;
19024;SDS011;9645;51.448;6.260;2023-02-28T10:19:19;2.83;;;2.57;;
19024;SDS011;9645;51.448;6.260;2023-02-28T10:21:47;8.70;;;3.30;;
19024;SDS011;9645;51.448;6.260;2023-02-28T10:24:19;5.03;;;2.60;;
19024;SDS011;9645;51.448;6.260;2023-02-28T10:26:47;3.27;;;2.70;;
19024;SDS011;9645;51.448;6.260;2023-02-28T10:29:14;2.57;;;2.37;;
19024;SDS011;9645;51.448;6.260;2023-02-28T10:31:42;3.60;;;2.87;;
19024;SDS011;9645;51.448;6.260;2023-02-28T10:34:11;2.43;;;2.23;;
19024;SDS011;9645;51.448;6.260;2023-02-28T10:36:40;3.67;;;2.50;;
19024;SDS011;9645;51.448;6.260;2023-02-28T10:41:57;2.90;;;2.60;;
19024;SDS011;9645;51.448;6.260;2023-02-28T10:44:24;7.07;;;3.00;;
19024;SDS011;9645;51.448;6.260;2023-02-28T10:46:51;2.50;;;2.30;;
19024;SDS011;9645;51.448;6.260;2023-02-28T10:49:20;2.30;;;2.10;;
19024;SDS011;9645;51.448;6.260;2023-02-28T10:51:49;3.27;;;2.53;;
19024;SDS011;9645;51.448;6.260;2023-02-28T10:54:19;3.13;;;2.03;;
19024;SDS011;9645;51.448;6.260;2023-02-28T10:59:34;9.50;;;3.10;;
19024;SDS011;9645;51.448;6.260;2023-02-28T11:02:01;3.93;;;2.90;;
19024;SDS011;9645;51.448;6.260;2023-02-28T11:04:32;8.10;;;3.17;;
19024;SDS011;9645;51.448;6.260;2023-02-28T11:07:05;4.43;;;3.40;;
19024;SDS011;9645;51.448;6.260;2023-02-28T11:09:41;2.83;;;2.60;;
19024;SDS011;9645;51.448;6.260;2023-02-28T11:12:19;4.10;;;3.20;;
19024;SDS011;9645;51.448;6.260;2023-02-28T11:14:49;4.10;;;2.80;;
19024;SDS011;9645;51.448;6.260;2023-02-28T11:17:19;3.47;;;2.40;;
19024;SDS011;9645;51.448;6.260;2023-02-28T11:19:49;2.90;;;2.63;;
19024;SDS011;9645;51.448;6.260;2023-02-28T11:22:21;3.20;;;2.73;;
19024;SDS011;9645;51.448;6.260;2023-02-28T11:24:54;3.63;;;2.80;;
19024;SDS011;9645;51.448;6.260;2023-02-28T11:27:42;4.47;;;2.80;;
19024;SDS011;9645;51.448;6.260;2023-02-28T11:30:26;2.93;;;2.67;;
19024;SDS011;9645;51.448;6.260;2023-02-28T11:32:56;5.03;;;2.70;;
19024;SDS011;9645;51.448;6.260;2023-02-28T11:35:24;10.93;;;3.20;;
19024;SDS011;9645;51.448;6.260;2023-02-28T11:37:56;2.90;;;2.60;;
19024;SDS011;9645;51.448;6.260;2023-02-28T11:40:25;2.70;;;2.50;;
19024;SDS011;9645;51.448;6.260;2023-02-28T11:43:01;4.30;;;2.70;;
19024;SDS011;9645;51.448;6.260;2023-02-28T11:45:42;4.80;;;2.73;;
19024;SDS011;9645;51.448;6.260;2023-02-28T11:48:17;3.63;;;3.10;;
19024;SDS011;9645;51.448;6.260;2023-02-28T11:50:52;3.93;;;3.00;;
19024;SDS011;9645;51.448;6.260;2023-02-28T11:53:34;5.30;;;3.40;;
19024;SDS011;9645;51.448;6.260;2023-02-28T11:56:17;5.27;;;2.97;;
19024;SDS011;9645;51.448;6.260;2023-02-28T11:58:51;3.50;;;2.90;;
19024;SDS011;9645;51.448;6.260;2023-02-28T12:04:32;6.17;;;3.90;;
19024;SDS011;9645;51.448;6.260;2023-02-28T12:07:09;4.27;;;3.57;;
19024;SDS011;9645;51.448;6.260;2023-02-28T12:09:50;7.53;;;3.83;;
19024;SDS011;9645;51.448;6.260;2023-02-28T12:12:33;6.40;;;4.70;;
19024;SDS011;9645;51.448;6.260;2023-02-28T12:15:18;5.43;;;4.33;;
19024;SDS011;9645;51.448;6.260;2023-02-28T12:18:09;8.97;;;4.60;;
19024;SDS011;9645;51.448;6.260;2023-02-28T12:20:49;6.53;;;4.03;;
19024;SDS011;9645;51.448;6.260;2023-02-28T12:23:40;5.00;;;4.20;;
19024;SDS011;9645;51.448;6.260;2023-02-28T12:26:27;6.60;;;4.00;;
19024;SDS011;9645;51.448;6.260;2023-02-28T12:29:02;5.17;;;3.87;;
19024;SDS011;9645;51.448;6.260;2023-02-28T12:31:46;7.17;;;3.43;;
19024;SDS011;9645;51.448;6.260;2023-02-28T12:34:18;6.77;;;3.70;;
19024;SDS011;9645;51.448;6.260;2023-02-28T12:36:48;5.07;;;3.60;;
19024;SDS011;9645;51.448;6.260;2023-02-28T12:39:22;7.10;;;3.57;;
19024;SDS011;9645;51.448;6.260;2023-02-28T12:41:58;4.33;;;3.50;;
19024;SDS011;9645;51.448;6.260;2023-02-28T12:44:30;5.77;;;3.23;;
19024;SDS011;9645;51.448;6.260;2023-02-28T12:47:00;5.17;;;3.67;;
19024;SDS011;9645;51.448;6.260;2023-02-28T12:49:31;4.90;;;3.63;;
19024;SDS011;9645;51.448;6.260;2023-02-28T12:52:00;10.07;;;3.50;;
19024;SDS011;9645;51.448;6.260;2023-02-28T12:54:29;3.43;;;3.13;;
19024;SDS011;9645;51.448;6.260;2023-02-28T12:57:06;4.70;;;3.30;;
19024;SDS011;9645;51.448;6.260;2023-02-28T12:59:37;3.70;;;3.00;;
19024;SDS011;9645;51.448;6.260;2023-02-28T13:05:07;5.40;;;3.80;;
19024;SDS011;9645;51.448;6.260;2023-02-28T13:07:55;4.50;;;3.20;;
19024;SDS011;9645;51.448;6.260;2023-02-28T13:10:43;3.70;;;3.27;;
19024;SDS011;9645;51.448;6.260;2023-02-28T13:13:17;5.40;;;3.30;;
19024;SDS011;9645;51.448;6.260;2023-02-28T13:15:57;2.93;;;2.70;;
19024;SDS011;9645;51.448;6.260;2023-02-28T13:18:27;9.13;;;3.90;;
19024;SDS011;9645;51.448;6.260;2023-02-28T13:20:57;9.80;;;4.10;;
19024;SDS011;9645;51.448;6.260;2023-02-28T13:23:56;3.90;;;3.03;;
19024;SDS011;9645;51.448;6.260;2023-02-28T13:29:33;3.63;;;3.00;;
19024;SDS011;9645;51.448;6.260;2023-02-28T13:32:28;3.97;;;2.90;;
19024;SDS011;9645;51.448;6.260;2023-02-28T13:38:15;5.97;;;3.57;;
19024;SDS011;9645;51.448;6.260;2023-02-28T13:44:04;5.30;;;2.90;;
19024;SDS011;9645;51.448;6.260;2023-02-28T13:46:34;5.50;;;3.80;;
19024;SDS011;9645;51.448;6.260;2023-02-28T13:49:23;9.90;;;3.80;;
19024;SDS011;9645;51.448;6.260;2023-02-28T13:51:53;8.17;;;3.60;;
19024;SDS011;9645;51.448;6.260;2023-02-28T13:54:32;3.87;;;3.43;;
19024;SDS011;9645;51.448;6.260;2023-02-28T13:57:13;5.70;;;3.87;;
19024;SDS011;9645;51.448;6.260;2023-02-28T13:59:51;8.07;;;3.20;;
19024;SDS011;9645;51.448;6.260;2023-02-28T14:02:50;4.67;;;3.40;;
19024;SDS011;9645;51.448;6.260;2023-02-28T14:05:31;9.73;;;3.37;;
19024;SDS011;9645;51.448;6.260;2023-02-28T14:08:02;7.20;;;3.53;;
19024;SDS011;9645;51.448;6.260;2023-02-28T14:10:33;7.25;;;3.80;;
19024;SDS011;9645;51.448;6.260;2023-02-28T14:13:12;8.10;;;4.15;;
19024;SDS011;9645;51.448;6.260;2023-02-28T14:16:03;4.93;;;3.80;;
19024;SDS011;9645;51.448;6.260;2023-02-28T14:18:32;6.95;;;3.85;;
19024;SDS011;9645;51.448;6.260;2023-02-28T14:21:09;4.97;;;3.70;;
19024;SDS011;9645;51.448;6.260;2023-02-28T14:26:33;5.40;;;3.60;;
19024;SDS011;9645;51.448;6.260;2023-02-28T14:29:42;6.43;;;4.20;;
19024;SDS011;9645;51.448;6.260;2023-02-28T14:32:37;6.28;;;3.95;;
19024;SDS011;9645;51.448;6.260;2023-02-28T14:35:14;6.65;;;3.33;;
19024;SDS011;9645;51.448;6.260;2023-02-28T14:37:50;4.20;;;3.00;;
19024;SDS011;9645;51.448;6.260;2023-02-28T14:40:20;6.60;;;4.32;;
19024;SDS011;9645;51.448;6.260;2023-02-28T14:42:54;5.05;;;3.80;;
19024;SDS011;9645;51.448;6.260;2023-02-28T14:45:22;12.45;;;3.70;;
19024;SDS011;9645;51.448;6.260;2023-02-28T14:47:51;5.20;;;3.30;;
19024;SDS011;9645;51.448;6.260;2023-02-28T14:50:18;5.43;;;3.90;;
19024;SDS011;9645;51.448;6.260;2023-02-28T14:52:47;9.40;;;4.65;;
19024;SDS011;9645;51.448;6.260;2023-02-28T14:55:18;5.22;;;3.63;;
19024;SDS011;9645;51.448;6.260;2023-02-28T14:57:50;6.18;;;3.90;;
19024;SDS011;9645;51.448;6.260;2023-02-28T15:00:21;6.45;;;4.15;;
19024;SDS011;9645;51.448;6.260;2023-02-28T15:02:51;6.55;;;4.07;;
19024;SDS011;9645;51.448;6.260;2023-02-28T15:05:28;7.05;;;4.13;;
19024;SDS011;9645;51.448;6.260;2023-02-28T15:08:09;5.70;;;3.97;;
19024;SDS011;9645;51.448;6.260;2023-02-28T15:10:39;5.88;;;3.80;;
19024;SDS011;9645;51.448;6.260;2023-02-28T15:13:11;9.80;;;4.18;;
19024;SDS011;9645;51.448;6.260;2023-02-28T15:15:45;7.10;;;3.67;;
19024;SDS011;9645;51.448;6.260;2023-02-28T15:18:27;5.95;;;4.15;;
19024;SDS011;9645;51.448;6.260;2023-02-28T15:20:57;6.38;;;4.20;;
19024;SDS011;9645;51.448;6.260;2023-02-28T15:23:29;5.95;;;3.97;;
19024;SDS011;9645;51.448;6.260;2023-02-28T15:25:56;6.80;;;4.43;;
19024;SDS011;9645;51.448;6.260;2023-02-28T15:28:25;6.40;;;3.70;;
19024;SDS011;9645;51.448;6.260;2023-02-28T15:30:55;5.43;;;3.95;;
19024;SDS011;9645;51.448;6.260;2023-02-28T15:33:24;6.57;;;3.63;;
19024;SDS011;9645;51.448;6.260;2023-02-28T15:36:09;7.80;;;3.70;;
19024;SDS011;9645;51.448;6.260;2023-02-28T15:38:40;8.27;;;4.15;;
19024;SDS011;9645;51.448;6.260;2023-02-28T15:41:21;6.10;;;3.38;;
19024;SDS011;9645;51.448;6.260;2023-02-28T15:43:57;3.08;;;2.78;;
19024;SDS011;9645;51.448;6.260;2023-02-28T15:46:41;5.30;;;3.63;;